Time;durP1;ratioP1;P1;durP2;ratioP2;P2;SDS_P1;SDS_P2;PMS_P1;PMS_P2;Temp;Humidity;BMP_temperature;BMP_pressure;BME280_temperature;BME280_humidity;BME280_pressure;Samples;Min_cycle;Max_cycle;Signal;HPM_P1;HPM_P2
2021/10/12 00:01:58;;;;;;;22.67;15.13;;;11.00;99.90;;;;;;5071327;28;20485;-78
2021/10/12 00:04:25;;;;;;;25.58;16.42;;;10.90;99.90;;;;;;5090766;28;20466;-79
2021/10/12 00:06:52;;;;;;;25.73;15.85;;;10.90;99.90;;;;;;5085827;28;20131;-80
2021/10/12 00:09:20;;;;;;;25.02;15.60;;;10.90;99.90;;;;;;5075025;28;20084;-81
2021/10/12 00:11:47;;;;;;;25.23;16.38;;;10.80;99.90;;;;;;5075018;28;20135;-80
2021/10/12 00:14:15;;;;;;;26.00;17.00;;;10.80;99.90;;;;;;5074981;28;20202;-79
2021/10/12 00:16:43;;;;;;;25.92;16.80;;;10.80;99.90;;;;;;5075877;28;20139;-78
2021/10/12 00:19:13;;;;;;;27.13;16.17;;;10.70;99.90;;;;;;5074891;28;20045;-79
2021/10/12 00:21:40;;;;;;;25.95;16.17;;;10.70;99.90;;;;;;5073348;28;20410;-80
2021/10/12 00:24:09;;;;;;;24.45;15.85;;;10.60;99.90;;;;;;5074883;28;20135;-80
2021/10/12 00:26:36;;;;;;;23.90;15.02;;;10.60;99.90;;;;;;5083007;28;20056;-81
2021/10/12 00:29:03;;;;;;;24.58;14.68;;;10.60;99.90;;;;;;5095036;28;20079;-78
2021/10/12 00:31:30;;;;;;;23.10;14.20;;;10.60;99.90;;;;;;5094657;28;20127;-79
2021/10/12 00:33:58;;;;;;;22.75;14.45;;;10.50;99.90;;;;;;5094700;28;20127;-79
2021/10/12 00:36:26;;;;;;;24.55;13.40;;;10.50;99.90;;;;;;5103428;28;20053;-79
2021/10/12 00:38:53;;;;;;;20.45;12.63;;;10.50;99.90;;;;;;5074717;28;20135;-80
2021/10/12 00:41:22;;;;;;;22.40;13.27;;;10.50;99.90;;;;;;5074378;28;20159;-80
2021/10/12 00:43:49;;;;;;;22.08;12.43;;;10.60;99.90;;;;;;5074572;28;20145;-78
2021/10/12 00:46:16;;;;;;;20.38;12.35;;;10.60;99.90;;;;;;5085575;28;20466;-80
2021/10/12 00:48:43;;;;;;;18.60;11.70;;;10.60;99.90;;;;;;5073941;28;20118;-80
2021/10/12 00:51:11;;;;;;;20.58;12.38;;;10.60;99.90;;;;;;5074022;28;20131;-80
2021/10/12 00:53:40;;;;;;;20.95;12.20;;;10.60;99.90;;;;;;5074341;28;20226;-79
2021/10/12 00:56:08;;;;;;;19.50;11.98;;;10.60;99.90;;;;;;5074707;28;20558;-80
2021/10/12 00:58:36;;;;;;;19.88;11.93;;;10.60;99.90;;;;;;5094172;28;20497;-80
2021/10/12 01:01:03;;;;;;;22.23;13.43;;;10.60;99.90;;;;;;5094232;28;20135;-80
2021/10/12 01:03:30;;;;;;;19.88;12.55;;;10.60;99.90;;;;;;5082082;28;20127;-80
2021/10/12 01:05:58;;;;;;;19.25;12.10;;;10.70;99.90;;;;;;5073912;28;20460;-79
2021/10/12 01:08:25;;;;;;;20.73;13.10;;;10.60;99.90;;;;;;5090858;28;20474;-80
2021/10/12 01:10:53;;;;;;;21.92;13.55;;;10.70;99.90;;;;;;5093909;28;20111;-80
2021/10/12 01:13:20;;;;;;;18.90;12.57;;;10.70;99.90;;;;;;5077989;28;20761;-80
2021/10/12 01:15:47;;;;;;;22.50;14.30;;;10.70;99.90;;;;;;5074744;28;20096;-80
2021/10/12 01:18:15;;;;;;;23.02;12.85;;;10.70;99.90;;;;;;5080727;28;20139;-80
2021/10/12 01:20:43;;;;;;;19.88;12.27;;;10.70;99.90;;;;;;5073772;28;20151;-80
2021/10/12 01:23:13;;;;;;;18.77;12.10;;;10.70;99.90;;;;;;5073459;28;20044;-80
2021/10/12 01:25:40;;;;;;;20.13;12.27;;;10.70;99.90;;;;;;5075513;28;20155;-80
2021/10/12 01:28:08;;;;;;;19.98;12.65;;;10.60;99.90;;;;;;5084489;28;20472;-79
2021/10/12 01:30:36;;;;;;;20.83;12.98;;;10.60;99.90;;;;;;5073462;28;20102;-80
2021/10/12 01:33:03;;;;;;;20.38;13.05;;;10.60;99.90;;;;;;5073442;28;20056;-80
2021/10/12 01:35:30;;;;;;;19.38;12.63;;;10.60;99.90;;;;;;5073324;28;20489;-80
2021/10/12 01:37:58;;;;;;;17.55;11.38;;;10.50;99.90;;;;;;5077915;28;20127;-80
2021/10/12 01:40:27;;;;;;;17.17;11.20;;;10.50;99.90;;;;;;5090875;28;20139;-80
2021/10/12 01:42:57;;;;;;;20.38;11.93;;;10.50;99.90;;;;;;5073152;28;20143;-80
2021/10/12 01:45:25;;;;;;;21.63;12.23;;;10.50;99.90;;;;;;5073471;28;20041;-80
2021/10/12 01:47:53;;;;;;;22.13;12.60;;;10.40;99.90;;;;;;5073555;28;20056;-79
2021/10/12 01:50:21;;;;;;;19.75;12.00;;;10.40;99.90;;;;;;5093130;28;20048;-79
2021/10/12 01:52:48;;;;;;;20.98;11.98;;;10.40;99.90;;;;;;5093249;28;20052;-80
2021/10/12 01:55:18;;;;;;;19.83;12.57;;;10.40;99.90;;;;;;5093099;28;20140;-81
2021/10/12 01:57:47;;;;;;;18.20;11.95;;;10.40;99.90;;;;;;5091724;28;20480;-80
2021/10/12 02:00:14;;;;;;;19.95;11.85;;;10.30;99.90;;;;;;5075929;28;20049;-80
2021/10/12 02:02:42;;;;;;;18.67;11.38;;;10.30;99.90;;;;;;5093045;28;20135;-80
2021/10/12 02:05:09;;;;;;;20.80;11.73;;;10.30;99.90;;;;;;5092965;28;20135;-80
2021/10/12 02:07:36;;;;;;;18.00;11.27;;;10.30;99.90;;;;;;5091590;28;20584;-79
2021/10/12 02:10:05;;;;;;;18.30;11.35;;;10.30;99.90;;;;;;5079008;28;20079;-80
2021/10/12 02:12:32;;;;;;;18.70;11.73;;;10.30;99.90;;;;;;5072693;28;20132;-79
2021/10/12 02:15:00;;;;;;;18.98;11.35;;;10.20;99.90;;;;;;5072485;28;20597;-80
2021/10/12 02:17:28;;;;;;;18.77;11.50;;;10.20;99.90;;;;;;5073295;28;20476;-79
2021/10/12 02:19:56;;;;;;;18.30;11.75;;;10.20;99.90;;;;;;5079816;28;20123;-79
2021/10/12 02:22:23;;;;;;;15.93;10.88;;;10.20;99.90;;;;;;5083992;28;20062;-78
2021/10/12 02:24:50;;;;;;;17.25;11.38;;;10.20;99.90;;;;;;5077586;28;20132;-80
2021/10/12 02:27:17;;;;;;;21.48;11.85;;;10.20;99.90;;;;;;5078018;28;20163;-80
2021/10/12 02:29:44;;;;;;;19.30;11.43;;;10.20;99.90;;;;;;5078722;28;20060;-81
2021/10/12 02:32:12;;;;;;;16.15;10.60;;;10.20;99.90;;;;;;5080874;28;20139;-80
2021/10/12 02:34:40;;;;;;;16.65;10.90;;;10.10;99.90;;;;;;5090902;28;20499;-79
2021/10/12 02:37:07;;;;;;;19.95;11.48;;;10.10;99.90;;;;;;5083617;28;20048;-78
2021/10/12 02:39:34;;;;;;;17.63;10.93;;;10.10;99.90;;;;;;5083622;28;20123;-79
2021/10/12 02:42:01;;;;;;;16.83;10.30;;;10.10;99.90;;;;;;5084422;28;20120;-78
2021/10/12 02:44:28;;;;;;;17.25;9.93;;;10.10;99.90;;;;;;5083834;28;20127;-79
2021/10/12 02:46:55;;;;;;;19.02;10.43;;;10.10;99.90;;;;;;5082029;28;20143;-78
2021/10/12 02:49:24;;;;;;;17.13;10.20;;;10.10;99.90;;;;;;5080965;28;20474;-80
2021/10/12 02:51:51;;;;;;;18.02;10.90;;;10.10;99.90;;;;;;5086653;28;20134;-79
2021/10/12 02:54:18;;;;;;;16.25;10.60;;;10.10;99.90;;;;;;5075665;28;20474;-79
2021/10/12 02:56:45;;;;;;;20.85;11.43;;;10.10;99.90;;;;;;5091788;28;20508;-80
2021/10/12 02:59:12;;;;;;;17.50;10.18;;;10.10;99.90;;;;;;5091841;28;20472;-78
2021/10/12 03:01:39;;;;;;;17.92;10.15;;;10.10;99.90;;;;;;5091369;28;20139;-79
2021/10/12 03:04:06;;;;;;;16.75;10.52;;;10.10;99.90;;;;;;5086553;28;20056;-80
2021/10/12 03:06:34;;;;;;;17.17;10.73;;;10.10;99.90;;;;;;5085249;28;20119;-80
2021/10/12 03:09:02;;;;;;;17.90;10.82;;;10.10;99.90;;;;;;5083798;28;20565;-79
2021/10/12 03:11:29;;;;;;;17.80;10.77;;;10.10;99.90;;;;;;5084630;28;20131;-80
2021/10/12 03:13:56;;;;;;;17.00;10.45;;;10.10;99.90;;;;;;5083818;28;20151;-80
2021/10/12 03:16:23;;;;;;;18.33;10.45;;;10.10;99.90;;;;;;5071443;28;20048;-80
2021/10/12 03:18:51;;;;;;;19.73;10.23;;;10.00;99.90;;;;;;5081655;28;20127;-80
2021/10/12 03:21:19;;;;;;;18.02;10.70;;;10.00;99.90;;;;;;5078354;28;20127;-78
2021/10/12 03:23:47;;;;;;;15.73;9.57;;;10.10;99.90;;;;;;5073999;28;20446;-79
2021/10/12 03:26:14;;;;;;;16.92;10.40;;;10.10;99.90;;;;;;5084364;28;20058;-79
2021/10/12 03:28:41;;;;;;;16.10;10.48;;;10.10;99.90;;;;;;5073339;28;20123;-80
2021/10/12 03:31:08;;;;;;;18.85;10.77;;;10.10;99.90;;;;;;5079142;28;20144;-79
2021/10/12 03:33:35;;;;;;;16.00;10.02;;;10.10;99.90;;;;;;5080544;28;20048;-80
2021/10/12 03:36:12;;;;;;;15.77;9.57;;;10.10;99.90;;;;;;5071722;28;20133;-80
2021/10/12 03:38:39;;;;;;;17.55;10.50;;;10.10;99.90;;;;;;5089037;28;20046;-80
2021/10/12 03:41:08;;;;;;;18.00;9.95;;;10.10;99.90;;;;;;5083483;28;20040;-79
2021/10/12 03:43:35;;;;;;;16.48;10.40;;;10.10;99.90;;;;;;5084714;28;20163;-79
2021/10/12 03:46:03;;;;;;;17.50;9.82;;;10.10;99.90;;;;;;5075360;28;20147;-79
2021/10/12 03:48:30;;;;;;;16.75;10.30;;;10.10;99.90;;;;;;5075288;28;20556;-80
2021/10/12 03:50:57;;;;;;;16.38;10.02;;;10.10;99.90;;;;;;5084531;28;20472;-80
2021/10/12 03:53:24;;;;;;;16.90;10.90;;;10.10;99.90;;;;;;5071847;28;20580;-79
2021/10/12 03:55:51;;;;;;;16.90;10.20;;;10.10;99.90;;;;;;5086596;28;20134;-82
2021/10/12 03:58:19;;;;;;;16.33;10.15;;;10.10;99.90;;;;;;5075627;28;20147;-81
2021/10/12 04:00:47;;;;;;;17.67;10.70;;;10.10;99.90;;;;;;5084953;28;20044;-79
2021/10/12 04:03:14;;;;;;;18.13;10.55;;;10.10;99.90;;;;;;5084573;28;20050;-80
2021/10/12 04:05:41;;;;;;;16.13;10.55;;;10.10;99.90;;;;;;5083441;28;20127;-78
2021/10/12 04:08:08;;;;;;;20.10;11.35;;;10.00;99.90;;;;;;5091427;28;20143;-80
2021/10/12 04:10:35;;;;;;;18.70;11.50;;;10.10;99.90;;;;;;5075202;28;20447;-79
2021/10/12 04:13:03;;;;;;;18.77;10.95;;;10.00;99.90;;;;;;5082789;28;20131;-81
2021/10/12 04:15:32;;;;;;;19.38;11.15;;;10.00;99.90;;;;;;5083301;28;20054;-79
2021/10/12 04:18:00;;;;;;;24.15;11.98;;;9.90;99.90;;;;;;5088907;28;20052;-80
2021/10/12 04:20:27;;;;;;;19.33;12.05;;;9.90;99.90;;;;;;5074859;28;20569;-79
2021/10/12 04:22:57;;;;;;;20.83;12.05;;;9.90;99.90;;;;;;5089713;28;20069;-80
2021/10/12 04:25:24;;;;;;;17.85;11.10;;;9.90;99.90;;;;;;5076428;28;20052;-81
2021/10/12 04:27:52;;;;;;;18.58;10.98;;;9.90;99.90;;;;;;5081129;28;20040;-80
2021/10/12 04:30:19;;;;;;;17.85;11.25;;;9.90;99.90;;;;;;5084241;28;20066;-80
2021/10/12 04:32:48;;;;;;;19.20;11.57;;;9.90;99.90;;;;;;5088570;28;20135;-80
2021/10/12 04:35:15;;;;;;;18.83;11.70;;;9.90;99.90;;;;;;5084232;28;20127;-79
2021/10/12 04:37:42;;;;;;;19.85;12.05;;;9.90;99.90;;;;;;5074411;28;20147;-80
2021/10/12 04:40:10;;;;;;;19.95;11.40;;;9.90;99.90;;;;;;5074305;28;20588;-80
2021/10/12 04:42:38;;;;;;;17.05;10.57;;;9.80;99.90;;;;;;5074340;28;20143;-78
2021/10/12 04:45:06;;;;;;;17.05;11.02;;;9.80;99.90;;;;;;5074210;28;20573;-80
2021/10/12 04:47:34;;;;;;;16.75;10.50;;;9.70;99.90;;;;;;5074031;28;20124;-80
2021/10/12 04:50:02;;;;;;;16.23;9.82;;;9.80;99.90;;;;;;5073372;28;20553;-81
2021/10/12 04:52:30;;;;;;;16.83;10.40;;;9.70;99.90;;;;;;5074135;28;20139;-80
2021/10/12 04:54:57;;;;;;;15.50;9.75;;;9.80;99.90;;;;;;5074190;28;20131;-80
2021/10/12 04:57:24;;;;;;;18.02;10.98;;;9.80;99.90;;;;;;5074188;28;20052;-81
2021/10/12 04:59:51;;;;;;;22.00;12.25;;;9.90;99.90;;;;;;5074156;28;20131;-80
2021/10/12 05:02:19;;;;;;;20.00;11.95;;;9.90;99.90;;;;;;5074138;28;20124;-81
2021/10/12 05:04:47;;;;;;;18.10;11.77;;;9.90;99.90;;;;;;5074016;28;20041;-80
2021/10/12 05:07:15;;;;;;;21.73;12.00;;;9.90;99.90;;;;;;5073769;28;20135;-81
2021/10/12 05:09:42;;;;;;;20.02;12.02;;;9.90;99.90;;;;;;5074026;28;20123;-79
2021/10/12 05:12:09;;;;;;;20.08;12.27;;;9.90;99.90;;;;;;5073799;28;20572;-78
2021/10/12 05:14:36;;;;;;;20.17;11.38;;;9.90;99.90;;;;;;5072674;28;20087;-80
2021/10/12 05:17:05;;;;;;;21.13;11.50;;;9.80;99.90;;;;;;5073612;28;20045;-80
2021/10/12 05:19:34;;;;;;;18.40;11.35;;;9.80;99.90;;;;;;5073762;28;20053;-81
2021/10/12 05:22:01;;;;;;;19.10;11.52;;;9.80;99.90;;;;;;5073537;28;20124;-81
2021/10/12 05:24:29;;;;;;;22.15;12.25;;;9.80;99.90;;;;;;5073838;28;20131;-81
2021/10/12 05:26:56;;;;;;;20.98;12.80;;;9.80;99.90;;;;;;5073624;28;20127;-80
2021/10/12 05:29:24;;;;;;;19.08;11.90;;;9.80;99.90;;;;;;5073529;28;20080;-81
2021/10/12 05:31:51;;;;;;;20.77;11.80;;;9.70;99.90;;;;;;5073407;28;20076;-80
2021/10/12 05:34:21;;;;;;;21.85;11.98;;;9.80;99.90;;;;;;5073274;28;20048;-81
2021/10/12 05:36:48;;;;;;;18.38;11.32;;;9.70;99.90;;;;;;5073421;28;20048;-80
2021/10/12 05:39:15;;;;;;;18.73;11.20;;;9.80;99.90;;;;;;5073426;28;20135;-80
2021/10/12 05:41:43;;;;;;;19.85;11.70;;;9.80;99.90;;;;;;5073169;28;20153;-80
2021/10/12 05:44:10;;;;;;;20.77;12.23;;;9.80;99.90;;;;;;5073113;28;20584;-79
2021/10/12 05:46:37;;;;;;;19.05;11.77;;;9.80;99.90;;;;;;5073171;28;20131;-80
2021/10/12 05:49:04;;;;;;;21.88;12.93;;;9.80;99.90;;;;;;5072843;28;20139;-80
2021/10/12 05:51:31;;;;;;;23.10;13.25;;;9.80;99.90;;;;;;5072788;28;20127;-80
2021/10/12 05:54:00;;;;;;;18.85;11.13;;;9.80;99.90;;;;;;5072680;28;20466;-80
2021/10/12 05:56:28;;;;;;;17.95;10.90;;;9.80;99.90;;;;;;5072720;28;20049;-79
2021/10/12 05:58:56;;;;;;;18.40;10.60;;;9.80;99.90;;;;;;5073209;28;20048;-80
2021/10/12 06:01:24;;;;;;;21.02;11.85;;;9.80;99.90;;;;;;5072694;28;20135;-80
2021/10/12 06:03:52;;;;;;;18.65;10.93;;;9.80;99.90;;;;;;5072938;28;20131;-80
2021/10/12 06:06:19;;;;;;;18.55;10.85;;;9.80;99.90;;;;;;5072763;28;20139;-80
2021/10/12 06:08:46;;;;;;;19.58;11.27;;;9.80;99.90;;;;;;5072796;28;20135;-80
2021/10/12 06:11:13;;;;;;;18.13;11.00;;;9.80;99.90;;;;;;5072571;28;20076;-81
2021/10/12 06:13:41;;;;;;;18.15;11.48;;;9.90;99.90;;;;;;5072389;28;20123;-77
2021/10/12 06:16:10;;;;;;;21.83;12.38;;;9.90;99.90;;;;;;5072689;28;20052;-80
2021/10/12 06:18:37;;;;;;;20.90;12.43;;;9.90;99.90;;;;;;5072581;28;20136;-79
2021/10/12 06:21:04;;;;;;;19.20;11.70;;;9.90;99.90;;;;;;5072351;28;20563;-80
2021/10/12 06:23:32;;;;;;;20.45;12.00;;;9.90;99.90;;;;;;5072534;28;20132;-80
2021/10/12 06:25:59;;;;;;;18.80;11.77;;;9.80;99.90;;;;;;5072449;28;20525;-81
2021/10/12 06:28:27;;;;;;;19.08;11.50;;;9.80;99.90;;;;;;5072268;28;20048;-81
2021/10/12 06:30:55;;;;;;;19.27;11.55;;;9.80;99.90;;;;;;5072147;28;20040;-80
2021/10/12 06:33:23;;;;;;;18.58;11.50;;;9.70;99.90;;;;;;5072398;28;20135;-80
2021/10/12 06:35:50;;;;;;;19.85;11.20;;;9.70;99.90;;;;;;5072248;28;20044;-80
2021/10/12 06:38:17;;;;;;;17.85;11.20;;;9.70;99.90;;;;;;5072095;28;20135;-80
2021/10/12 06:40:45;;;;;;;19.95;11.60;;;9.70;99.90;;;;;;5072184;28;20127;-81
2021/10/12 06:43:12;;;;;;;19.98;12.35;;;9.70;99.90;;;;;;5072029;28;20055;-78
2021/10/12 06:45:39;;;;;;;21.02;12.23;;;9.70;99.90;;;;;;5072241;28;20131;-79
2021/10/12 06:48:06;;;;;;;18.60;11.27;;;9.70;99.90;;;;;;5071847;28;20048;-81
2021/10/12 06:50:35;;;;;;;17.70;11.57;;;9.70;99.90;;;;;;5071957;28;20513;-80
2021/10/12 06:53:03;;;;;;;17.85;11.07;;;9.70;99.90;;;;;;5072055;28;20123;-80
2021/10/12 06:55:30;;;;;;;21.45;12.52;;;9.70;99.90;;;;;;5071877;28;20465;-80
2021/10/12 06:57:58;;;;;;;18.55;12.10;;;9.70;99.90;;;;;;5072000;28;20139;-80
2021/10/12 07:00:25;;;;;;;20.67;11.18;;;9.70;99.90;;;;;;5072054;28;20140;-80
2021/10/12 07:02:52;;;;;;;20.40;11.50;;;9.70;99.90;;;;;;5072141;28;20051;-80
2021/10/12 07:05:19;;;;;;;17.40;11.10;;;9.70;99.90;;;;;;5071971;28;20139;-78
2021/10/12 07:07:47;;;;;;;19.48;11.13;;;9.70;99.90;;;;;;5071846;28;20048;-81
2021/10/12 07:10:15;;;;;;;17.17;10.73;;;9.70;99.90;;;;;;5071788;28;20052;-79
2021/10/12 07:12:43;;;;;;;19.15;11.30;;;9.70;99.90;;;;;;5071677;28;20044;-79
2021/10/12 07:15:11;;;;;;;17.70;11.63;;;9.70;99.90;;;;;;5071723;28;20143;-81
2021/10/12 07:17:39;;;;;;;15.85;10.38;;;9.70;99.90;;;;;;5071703;28;20132;-79
2021/10/12 07:20:08;;;;;;;17.70;10.05;;;9.70;99.90;;;;;;5071811;28;20052;-78
2021/10/12 07:22:36;;;;;;;18.73;10.25;;;9.80;99.90;;;;;;5071646;28;20131;-80
2021/10/12 07:25:06;;;;;;;19.23;10.52;;;9.80;99.90;;;;;;5071853;28;20152;-78
2021/10/12 07:27:34;;;;;;;17.42;10.55;;;9.80;99.90;;;;;;5071637;28;20049;-81
2021/10/12 07:30:02;;;;;;;17.60;10.85;;;9.80;99.90;;;;;;5071714;28;20052;-80
2021/10/12 07:32:29;;;;;;;19.73;10.55;;;9.70;99.90;;;;;;5071720;28;20127;-80
2021/10/12 07:34:56;;;;;;;18.52;10.68;;;9.80;99.90;;;;;;5071500;28;20414;-80
2021/10/12 07:37:23;;;;;;;17.42;9.82;;;9.80;99.90;;;;;;5071480;28;20412;-80
2021/10/12 07:39:50;;;;;;;18.90;11.43;;;9.80;99.90;;;;;;5071769;28;20193;-82
2021/10/12 07:42:18;;;;;;;18.70;10.30;;;9.80;99.90;;;;;;5071717;28;20154;-81
2021/10/12 07:44:46;;;;;;;16.77;10.43;;;9.80;99.90;;;;;;5071606;28;20139;-79
2021/10/12 07:47:13;;;;;;;17.83;11.02;;;9.90;99.90;;;;;;5071409;28;20051;-78
2021/10/12 07:49:40;;;;;;;16.27;10.57;;;9.90;99.90;;;;;;5071268;28;20752;-80
2021/10/12 07:52:08;;;;;;;18.02;11.10;;;9.80;99.90;;;;;;5071527;28;20139;-80
2021/10/12 07:54:48;;;;;;;17.92;11.07;;;9.90;99.90;;;;;;5071524;28;20410;-79
2021/10/12 07:57:16;;;;;;;20.48;11.10;;;9.90;99.90;;;;;;5071424;28;20102;-80
2021/10/12 07:59:46;;;;;;;18.05;11.48;;;9.90;99.90;;;;;;5071397;28;20119;-80
2021/10/12 08:02:14;;;;;;;20.13;11.80;;;9.90;99.90;;;;;;5071294;28;20131;-79
2021/10/12 08:04:41;;;;;;;17.73;11.00;;;9.80;99.90;;;;;;5071406;28;20478;-81
2021/10/12 08:07:09;;;;;;;19.00;11.02;;;9.80;99.90;;;;;;5071300;28;20585;-80
2021/10/12 08:09:37;;;;;;;18.70;11.43;;;9.90;99.90;;;;;;5071226;28;20140;-79
2021/10/12 08:12:05;;;;;;;18.55;11.88;;;9.80;99.90;;;;;;5071252;28;20072;-80
2021/10/12 08:14:37;;;;;;;18.02;11.38;;;9.80;99.90;;;;;;5071322;28;20596;-81
2021/10/12 08:17:06;;;;;;;21.27;11.48;;;9.80;99.90;;;;;;5083360;28;20098;-80
2021/10/12 08:19:33;;;;;;;21.95;12.48;;;9.80;99.90;;;;;;5071189;28;20561;-80
2021/10/12 08:22:00;;;;;;;19.25;11.95;;;9.70;99.90;;;;;;5070993;28;20132;-80
2021/10/12 08:24:27;;;;;;;20.38;11.88;;;9.70;99.90;;;;;;5070983;28;20139;-80
2021/10/12 08:26:55;;;;;;;18.58;11.40;;;9.60;99.90;;;;;;5074498;28;20128;-81
2021/10/12 08:29:22;;;;;;;21.05;11.50;;;9.60;99.90;;;;;;5094132;28;20134;-81
2021/10/12 08:31:49;;;;;;;20.60;12.55;;;9.60;99.90;;;;;;5094877;28;20135;-79
2021/10/12 08:34:17;;;;;;;20.60;12.35;;;9.60;99.90;;;;;;5094158;28;20147;-80
2021/10/12 08:36:44;;;;;;;21.35;12.10;;;9.60;99.90;;;;;;5094593;28;20135;-80
2021/10/12 08:39:12;;;;;;;19.58;11.70;;;9.60;99.90;;;;;;5094600;28;20103;-80
2021/10/12 08:41:48;;;;;;;20.15;12.50;;;9.70;99.90;;;;;;5077243;28;20501;-81
2021/10/12 08:44:15;;;;;;;22.52;13.57;;;9.70;99.90;;;;;;5074617;28;20052;-80
2021/10/12 08:46:43;;;;;;;20.25;12.20;;;9.70;99.90;;;;;;5074424;28;20048;-80
2021/10/12 08:49:12;;;;;;;18.95;11.77;;;9.80;99.90;;;;;;5086670;28;20056;-80
2021/10/12 08:51:43;;;;;;;19.58;12.35;;;9.80;99.90;;;;;;5094487;28;20048;-79
2021/10/12 08:54:11;;;;;;;19.45;11.10;;;9.80;99.90;;;;;;5094433;28;20044;-79
2021/10/12 08:56:38;;;;;;;19.25;10.95;;;9.80;99.90;;;;;;5094249;28;20048;-80
2021/10/12 08:59:06;;;;;;;20.58;11.02;;;9.90;99.90;;;;;;5094195;28;20059;-79
2021/10/12 09:01:57;;;;;;;18.88;10.02;;;9.90;99.90;;;;;;5094141;28;20564;-78
2021/10/12 09:04:25;;;;;;;17.02;10.60;;;10.00;99.90;;;;;;5073987;28;20048;-78
2021/10/12 09:06:55;;;;;;;16.02;10.52;;;10.10;99.90;;;;;;5073899;28;20139;-81
2021/10/12 09:09:35;;;;;;;16.70;9.98;;;10.10;99.90;;;;;;5074073;28;20048;-80
2021/10/12 09:12:02;;;;;;;18.55;10.07;;;10.20;99.90;;;;;;5073899;28;20048;-80
2021/10/12 09:14:29;;;;;;;13.45;9.30;;;10.20;99.90;;;;;;5073996;28;20048;-80
2021/10/12 09:17:05;;;;;;;16.83;8.77;;;10.30;99.90;;;;;;5082961;28;20131;-80
2021/10/12 09:19:34;;;;;;;15.77;9.57;;;10.30;99.90;;;;;;5093858;28;20056;-80
2021/10/12 09:22:06;;;;;;;15.63;9.27;;;10.40;99.90;;;;;;5094305;28;20040;-79
2021/10/12 09:24:39;;;;;;;16.15;8.93;;;10.50;99.90;;;;;;5093825;28;20051;-80
2021/10/12 09:27:09;;;;;;;18.38;9.10;;;10.60;99.90;;;;;;5089870;28;20067;-80
2021/10/12 09:29:38;;;;;;;12.70;8.27;;;10.60;99.90;;;;;;5090443;28;20062;-80
2021/10/12 09:32:08;;;;;;;14.05;7.90;;;10.70;99.90;;;;;;5090290;28;20044;-79
2021/10/12 09:34:36;;;;;;;16.35;8.38;;;10.80;99.90;;;;;;5090276;28;20130;-81
2021/10/12 09:37:06;;;;;;;15.25;8.00;;;10.80;99.90;;;;;;5089789;28;20570;-82
2021/10/12 09:39:35;;;;;;;14.20;7.93;;;10.90;99.90;;;;;;5090353;28;20158;-82
2021/10/12 09:42:05;;;;;;;12.77;7.82;;;10.90;99.90;;;;;;5089435;28;20117;-80
2021/10/12 09:44:32;;;;;;;11.55;7.25;;;10.90;99.90;;;;;;5090149;28;20147;-80
2021/10/12 09:47:09;;;;;;;11.55;6.63;;;10.90;99.90;;;;;;5090428;28;20090;-79
2021/10/12 09:49:37;;;;;;;12.18;6.80;;;10.90;99.90;;;;;;5090139;28;20131;-80
2021/10/12 09:52:10;;;;;;;11.05;6.65;;;10.90;99.90;;;;;;5093618;28;20091;-80
2021/10/12 09:54:41;;;;;;;9.07;5.75;;;10.90;99.90;;;;;;5090645;28;20710;-82
2021/10/12 09:57:09;;;;;;;9.40;5.50;;;10.90;99.90;;;;;;5090764;28;20051;-80
2021/10/12 09:59:36;;;;;;;12.68;5.75;;;10.90;99.90;;;;;;5070511;28;20387;-80
2021/10/12 10:02:04;;;;;;;10.35;5.75;;;10.90;99.90;;;;;;5076543;28;20580;-80
2021/10/12 10:04:31;;;;;;;9.23;5.80;;;10.90;99.90;;;;;;5089462;28;20154;-79
2021/10/12 10:07:06;;;;;;;13.27;7.18;;;11.00;99.90;;;;;;5089975;28;20136;-77
2021/10/12 10:09:35;;;;;;;12.30;6.97;;;11.00;99.90;;;;;;5087850;28;20095;-79
2021/10/12 10:12:02;;;;;;;14.40;7.47;;;11.00;99.90;;;;;;5090429;28;20056;-79
2021/10/12 10:14:30;;;;;;;14.15;7.60;;;11.10;99.90;;;;;;5089296;28;20519;-79
2021/10/12 10:17:00;;;;;;;12.38;7.43;;;11.10;99.90;;;;;;5089976;28;20070;-80
2021/10/12 10:19:31;;;;;;;13.05;7.63;;;11.20;99.90;;;;;;5090053;28;20044;-80
2021/10/12 10:21:59;;;;;;;14.40;7.53;;;11.20;99.90;;;;;;5090448;28;20456;-80
2021/10/12 10:24:44;;;;;;;11.98;7.50;;;11.40;99.90;;;;;;5089127;28;20565;-79
2021/10/12 10:27:31;;;;;;;14.55;8.27;;;11.50;99.90;;;;;;5089581;28;20051;-79
2021/10/12 10:30:28;;;;;;;14.32;8.88;;;11.70;99.90;;;;;;5081865;28;20056;-79
2021/10/12 10:32:58;;;;;;;14.40;8.45;;;11.80;99.90;;;;;;5078777;28;20131;-81
2021/10/12 10:35:38;;;;;;;13.07;8.00;;;11.80;99.90;;;;;;5088286;28;20127;-79
2021/10/12 10:38:35;;;;;;;11.55;7.57;;;11.80;99.90;;;;;;5085590;28;20138;-79
2021/10/12 10:41:26;;;;;;;11.13;6.97;;;11.80;99.90;;;;;;5069643;28;20529;-81
2021/10/12 10:43:59;;;;;;;11.63;6.93;;;11.70;99.90;;;;;;5068768;28;20044;-80
2021/10/12 10:46:40;;;;;;;12.85;7.47;;;11.70;99.90;;;;;;5069315;28;20468;-81
2021/10/12 10:49:13;;;;;;;12.57;7.30;;;11.60;99.90;;;;;;5068211;28;20112;-79
2021/10/12 10:51:59;;;;;;;13.55;6.68;;;11.60;99.90;;;;;;5083589;28;20043;-80
2021/10/12 10:55:01;;;;;;;10.98;6.10;;;11.50;99.90;;;;;;5089424;28;20048;-81
2021/10/12 10:57:30;;;;;;;13.70;7.40;;;11.50;99.90;;;;;;5088555;28;20070;-80
2021/10/12 11:00:24;;;;;;;11.43;6.22;;;11.40;99.90;;;;;;5089229;28;20062;-78
2021/10/12 11:02:52;;;;;;;12.00;7.20;;;11.40;99.90;;;;;;5089287;28;20047;-80
2021/10/12 11:05:48;;;;;;;14.10;7.65;;;11.40;99.90;;;;;;5088812;28;20054;-79
2021/10/12 11:08:21;;;;;;;10.52;6.65;;;11.40;99.90;;;;;;5053603;28;20048;-79
2021/10/12 11:10:53;;;;;;;15.38;8.35;;;11.40;99.90;;;;;;5088935;28;20097;-79
2021/10/12 11:13:35;;;;;;;18.50;9.00;;;11.40;99.90;;;;;;5089042;28;20134;-79
2021/10/12 11:16:05;;;;;;;14.73;8.27;;;11.50;99.90;;;;;;5089043;28;20059;-79
2021/10/12 11:18:32;;;;;;;14.93;9.18;;;11.50;99.90;;;;;;5088373;28;20406;-80
2021/10/12 11:21:02;;;;;;;14.10;7.57;;;11.50;99.90;;;;;;5089314;28;20059;-80
2021/10/12 11:23:33;;;;;;;12.20;7.50;;;11.50;99.90;;;;;;5088435;28;20458;-80
2021/10/12 11:26:07;;;;;;;13.45;8.27;;;11.50;99.90;;;;;;5089090;28;20052;-80
2021/10/12 11:28:38;;;;;;;15.00;8.70;;;11.50;99.90;;;;;;5089257;28;20454;-78
2021/10/12 11:31:08;;;;;;;17.08;8.80;;;11.50;99.90;;;;;;5089146;28;20155;-80
2021/10/12 11:33:39;;;;;;;17.90;8.82;;;11.50;99.90;;;;;;5088561;28;20081;-78
2021/10/12 11:36:09;;;;;;;16.55;9.18;;;11.50;99.90;;;;;;5088600;28;20131;-80
2021/10/12 11:38:40;;;;;;;15.00;8.38;;;11.40;99.90;;;;;;5089125;28;21911;-79
2021/10/12 11:41:24;;;;;;;13.82;8.15;;;11.50;99.90;;;;;;5093418;28;20044;-81
2021/10/12 11:43:57;;;;;;;13.02;7.78;;;11.40;99.90;;;;;;5088830;28;20036;-78
2021/10/12 11:46:28;;;;;;;14.38;7.70;;;11.40;99.90;;;;;;5088542;28;20040;-77
2021/10/12 11:48:57;;;;;;;13.93;7.70;;;11.40;99.90;;;;;;5088005;28;20052;-80
2021/10/12 11:51:27;;;;;;;13.63;7.72;;;11.40;99.90;;;;;;5088591;28;20117;-78
2021/10/12 11:53:56;;;;;;;11.73;6.82;;;11.40;99.90;;;;;;5088705;28;20044;-80
2021/10/12 11:56:25;;;;;;;12.63;6.75;;;11.40;99.90;;;;;;5088365;28;20131;-82
2021/10/12 11:58:58;;;;;;;12.65;7.38;;;11.40;99.90;;;;;;5088456;28;20481;-80
2021/10/12 12:01:31;;;;;;;11.85;6.35;;;11.40;99.90;;;;;;5091834;28;20261;-80
2021/10/12 12:04:00;;;;;;;11.98;6.43;;;11.40;99.90;;;;;;5092182;28;20123;-79
2021/10/12 12:06:30;;;;;;;11.63;6.45;;;11.40;99.90;;;;;;5092591;28;20144;-80
2021/10/12 12:09:00;;;;;;;8.95;5.35;;;11.40;99.90;;;;;;5092522;28;20468;-77
2021/10/12 12:11:31;;;;;;;10.35;5.93;;;11.40;99.90;;;;;;5092224;28;20135;-79
2021/10/12 12:14:03;;;;;;;10.52;5.22;;;11.40;99.90;;;;;;5091920;28;20584;-78
2021/10/12 12:16:34;;;;;;;10.93;5.60;;;11.40;99.90;;;;;;5071934;28;20171;-79
2021/10/12 12:19:02;;;;;;;8.70;5.20;;;11.40;99.90;;;;;;5071733;28;20044;-81
2021/10/12 12:21:32;;;;;;;10.10;5.63;;;11.40;99.90;;;;;;5080320;28;20105;-80
2021/10/12 12:24:01;;;;;;;9.50;4.72;;;11.40;99.90;;;;;;5091998;28;20130;-80
2021/10/12 12:26:30;;;;;;;9.15;4.75;;;11.50;99.90;;;;;;5091574;28;20044;-80
2021/10/12 12:29:20;;;;;;;9.25;4.65;;;11.50;99.90;;;;;;5091244;28;20067;-77
2021/10/12 12:31:50;;;;;;;7.55;4.28;;;11.50;99.90;;;;;;5092006;28;20234;-79
2021/10/12 12:34:29;;;;;;;8.80;4.28;;;11.60;99.90;;;;;;5091547;28;20143;-81
2021/10/12 12:36:57;;;;;;;10.95;5.07;;;11.60;99.90;;;;;;5091874;28;20128;-81
2021/10/12 12:39:37;;;;;;;7.80;4.65;;;11.70;99.90;;;;;;5091942;28;20051;-80
2021/10/12 12:42:08;;;;;;;7.78;4.63;;;11.70;99.90;;;;;;5091594;28;20113;-79
2021/10/12 12:44:37;;;;;;;7.45;4.47;;;11.80;99.90;;;;;;5091503;28;20078;-80